createdAt,value
2023-02-12T00:01:29.303Z,97662.22
2023-02-12T00:03:58.451Z,97655.84
2023-02-12T00:06:28.213Z,97659.09
2023-02-12T00:08:59.296Z,97659.72
2023-02-12T00:11:29.408Z,97660.47
2023-02-12T00:13:58.308Z,97658.00
2023-02-12T00:16:28.868Z,97664.16
2023-02-12T00:18:58.508Z,97653.78
2023-02-12T00:21:27.377Z,97656.59
2023-02-12T00:23:59.196Z,97661.88
2023-02-12T00:26:29.205Z,97666.50
2023-02-12T00:28:58.534Z,97661.75
2023-02-12T00:31:29.542Z,97661.09
2023-02-12T00:33:59.935Z,97662.22
2023-02-12T00:36:29.929Z,97653.50
2023-02-12T00:39:00.646Z,97660.41
2023-02-12T00:41:29.846Z,97647.88
2023-02-12T00:43:58.779Z,97653.63
2023-02-12T00:46:29.446Z,97656.88
2023-02-12T00:48:58.873Z,97655.53
2023-02-12T00:51:27.905Z,97654.16
2023-02-12T00:53:57.673Z,97660.22
2023-02-12T00:56:28.044Z,97652.44
2023-02-12T00:58:57.359Z,97656.94
2023-02-12T01:01:27.974Z,97660.56
2023-02-12T01:03:58.342Z,97664.53
2023-02-12T01:06:28.933Z,97660.56
2023-02-12T01:08:57.723Z,97663.56
2023-02-12T01:11:28.157Z,97667.56
2023-02-12T01:13:57.243Z,97660.78
2023-02-12T01:16:26.252Z,97664.44
2023-02-12T01:18:56.263Z,97669.66
2023-02-12T01:21:26.743Z,97669.16
2023-02-12T01:23:56.662Z,97678.59
2023-02-12T01:26:28.590Z,97676.31
2023-02-12T01:29:01.576Z,97680.13
2023-02-12T01:31:32.160Z,97676.81
2023-02-12T01:34:01.837Z,97677.81
2023-02-12T01:36:31.034Z,97680.44
2023-02-12T01:39:00.180Z,97680.59
2023-02-12T01:41:30.454Z,97677.59
2023-02-12T01:44:25.793Z,97679.56
2023-02-12T01:46:57.512Z,97673.00
2023-02-12T01:49:27.841Z,97675.53
2023-02-12T01:52:00.385Z,97677.19
2023-02-12T01:54:29.370Z,97675.13
2023-02-12T01:56:57.774Z,97673.63
2023-02-12T01:59:28.993Z,97670.66
2023-02-12T02:01:57.327Z,97660.63
2023-02-12T02:04:28.815Z,97652.63
2023-02-12T02:06:58.719Z,97666.34
2023-02-12T02:09:29.500Z,97670.84
2023-02-12T02:12:15.545Z,97671.56
2023-02-12T02:14:45.583Z,97671.63
2023-02-12T02:17:33.073Z,97677.59
2023-02-12T02:20:34.573Z,97673.16
2023-02-12T02:23:29.542Z,97672.53
2023-02-12T02:26:27.637Z,97671.53
2023-02-12T02:29:01.425Z,97680.00
2023-02-12T02:31:32.765Z,97681.97
2023-02-12T02:34:03.399Z,97677.03
2023-02-12T02:36:41.429Z,97677.38
2023-02-12T02:39:23.999Z,97680.66
2023-02-12T02:41:59.219Z,97682.31
2023-02-12T02:44:28.475Z,97688.09
2023-02-12T02:46:59.334Z,97694.69
2023-02-12T02:49:29.760Z,97695.03
2023-02-12T02:52:01.041Z,97689.09
2023-02-12T02:54:32.272Z,97683.16
2023-02-12T02:57:02.532Z,97687.13
2023-02-12T02:59:34.260Z,97689.09
2023-02-12T03:02:06.283Z,97691.25
2023-02-12T03:04:35.770Z,97692.41
2023-02-12T03:07:06.981Z,97694.25
2023-02-12T03:09:38.314Z,97695.03
2023-02-12T03:12:08.353Z,97694.25
2023-02-12T03:14:39.456Z,97700.69
2023-02-12T03:17:12.282Z,97697.69
2023-02-12T03:19:42.833Z,97699.00
2023-02-12T03:22:14.386Z,97699.53
2023-02-12T03:24:44.603Z,97694.03
2023-02-12T03:27:16.459Z,97701.16
2023-02-12T03:29:45.393Z,97703.78
2023-02-12T03:32:23.760Z,97707.09
2023-02-12T03:34:53.682Z,97705.09
2023-02-12T03:37:28.788Z,97711.19
2023-02-12T03:39:58.940Z,97707.34
2023-02-12T03:42:35.412Z,97705.00
2023-02-12T03:45:05.858Z,97703.34
2023-02-12T03:47:42.692Z,97703.69
2023-02-12T03:50:12.930Z,97707.13
2023-02-12T03:52:42.330Z,97702.69
2023-02-12T03:55:11.639Z,97703.56
2023-02-12T03:57:42.718Z,97702.41
2023-02-12T04:00:13.701Z,97703.25
2023-02-12T04:02:50.784Z,97705.09
2023-02-12T04:05:21.325Z,97701.81
2023-02-12T04:07:50.271Z,97710.09
2023-02-12T04:10:19.559Z,97711.41
2023-02-12T04:12:52.283Z,97712.38
2023-02-12T04:15:36.745Z,97711.22
2023-02-12T04:18:09.827Z,97711.56
2023-02-12T04:20:44.470Z,97718.00
2023-02-12T04:23:19.603Z,97716.34
2023-02-12T04:25:55.151Z,97718.31
2023-02-12T04:28:29.834Z,97721.28
2023-02-12T04:31:01.776Z,97719.16
2023-02-12T04:33:36.457Z,97727.06
2023-02-12T04:36:08.423Z,97720.81
2023-02-12T04:38:38.700Z,97727.41
2023-02-12T04:41:07.804Z,97727.22
2023-02-12T04:43:37.372Z,97726.09
2023-02-12T04:46:07.112Z,97726.53
2023-02-12T04:48:38.463Z,97727.66
2023-02-12T04:51:07.354Z,97727.69
2023-02-12T04:53:36.421Z,97730.66
2023-02-12T04:56:06.010Z,97720.78
2023-02-12T04:58:35.303Z,97718.47
2023-02-12T05:01:04.540Z,97718.97
2023-02-12T05:03:33.422Z,97715.97
2023-02-12T05:06:06.124Z,97722.41
2023-02-12T05:08:34.953Z,97721.31
2023-02-12T05:11:08.361Z,97717.59
2023-02-12T05:13:37.396Z,97717.22
2023-02-12T05:16:06.896Z,97718.50
2023-02-12T05:18:36.411Z,97715.91
2023-02-12T05:21:08.082Z,97720.22
2023-02-12T05:23:38.396Z,97718.88
2023-02-12T05:26:08.885Z,97721.69
2023-02-12T05:28:38.638Z,97731.97
2023-02-12T05:31:10.209Z,97733.84
2023-02-12T05:33:39.401Z,97730.59
2023-02-12T05:36:11.658Z,97739.56
2023-02-12T05:38:40.761Z,97736.31
2023-02-12T05:41:10.342Z,97736.06
2023-02-12T05:43:39.560Z,97735.47
2023-02-12T05:46:08.370Z,97739.44
2023-02-12T05:48:37.180Z,97743.78
2023-02-12T05:51:06.405Z,97746.38
2023-02-12T05:53:36.656Z,97750.59
2023-02-12T05:56:13.556Z,97750.44
2023-02-12T05:58:43.239Z,97756.84
2023-02-12T06:01:13.739Z,97765.59
2023-02-12T06:03:43.012Z,97767.59
2023-02-12T06:06:12.999Z,97766.16
2023-02-12T06:08:43.608Z,97759.88
2023-02-12T06:11:14.727Z,97757.00
2023-02-12T06:13:44.254Z,97757.00
2023-02-12T06:16:19.250Z,97760.75
2023-02-12T06:18:48.684Z,97765.91
2023-02-12T06:21:17.785Z,97769.19
2023-02-12T06:23:48.609Z,97764.25
2023-02-12T06:26:18.041Z,97765.25
2023-02-12T06:28:47.100Z,97769.06
2023-02-12T06:31:22.684Z,97759.81
2023-02-12T06:33:51.555Z,97766.53
2023-02-12T06:36:21.568Z,97761.63
2023-02-12T06:38:52.096Z,97764.13
2023-02-12T06:41:20.991Z,97766.66
2023-02-12T06:43:49.675Z,97773.91
2023-02-12T06:46:18.955Z,97771.97
2023-02-12T06:48:48.374Z,97774.13
2023-02-12T06:52:18.702Z,97777.09
2023-02-12T06:54:49.163Z,97775.50
2023-02-12T06:57:17.798Z,97771.69
2023-02-12T06:59:46.161Z,97774.38
2023-02-12T07:02:14.782Z,97785.66
2023-02-12T07:04:43.034Z,97789.28
2023-02-12T07:07:11.348Z,97790.78
2023-02-12T07:09:40.077Z,97796.41
2023-02-12T07:12:09.913Z,97800.22
2023-02-12T07:14:38.647Z,97799.06
2023-02-12T07:17:08.889Z,97808.09
2023-02-12T07:19:37.362Z,97804.63
2023-02-12T07:22:05.604Z,97807.63
2023-02-12T07:24:34.046Z,97812.09
2023-02-12T07:27:02.373Z,97813.25
2023-02-12T07:29:32.529Z,97813.25
2023-02-12T07:32:00.921Z,97823.31
2023-02-12T07:34:29.823Z,97826.13
2023-02-12T07:36:58.227Z,97826.31
2023-02-12T07:39:26.671Z,97820.22
2023-02-12T07:41:54.960Z,97824.97
2023-02-12T07:44:23.606Z,97831.75
2023-02-12T07:46:53.704Z,97827.63
2023-02-12T07:49:23.276Z,97825.81
2023-02-12T07:51:51.768Z,97830.09
2023-02-12T07:54:20.017Z,97832.75
2023-02-12T07:56:48.711Z,97835.72
2023-02-12T07:59:18.448Z,97836.72
2023-02-12T08:01:48.067Z,97837.16
2023-02-12T08:04:18.430Z,97835.53
2023-02-12T08:06:47.536Z,97843.44
2023-02-12T08:09:17.609Z,97844.59
2023-02-12T08:11:46.351Z,97845.75
2023-02-12T08:14:15.515Z,97848.56
2023-02-12T08:16:44.287Z,97846.91
2023-02-12T08:19:19.024Z,97844.44
2023-02-12T08:21:52.502Z,97847.09
2023-02-12T08:24:22.506Z,97842.28
2023-02-12T08:26:51.026Z,97844.59
2023-02-12T08:29:20.117Z,97845.75
2023-02-12T08:31:49.269Z,97847.22
2023-02-12T08:34:19.021Z,97846.50
2023-02-12T08:36:47.452Z,97852.41
2023-02-12T08:39:17.915Z,97856.03
2023-02-12T08:41:46.342Z,97844.25
2023-02-12T08:44:14.642Z,97855.44
2023-02-12T08:46:46.175Z,97847.16
2023-02-12T08:49:15.357Z,97856.56
2023-02-12T08:51:44.826Z,97861.38
2023-02-12T08:54:15.339Z,97859.38
2023-02-12T08:56:45.854Z,97860.34
2023-02-12T08:59:14.641Z,97868.94
2023-02-12T09:01:42.994Z,97872.06
2023-02-12T09:04:13.689Z,97871.91
2023-02-12T09:06:42.020Z,97876.00
2023-02-12T09:09:10.268Z,97880.28
2023-02-12T09:11:38.606Z,97877.66
2023-02-12T09:14:09.558Z,97877.47
2023-02-12T09:16:38.068Z,97884.25
2023-02-12T09:19:06.424Z,97886.69
2023-02-12T09:21:35.009Z,97888.50
2023-02-12T09:24:04.073Z,97891.31
2023-02-12T09:26:32.452Z,97896.56
2023-02-12T09:29:00.704Z,97892.09
2023-02-12T09:31:31.478Z,97895.06
2023-02-12T09:34:02.000Z,97895.06
2023-02-12T09:36:30.690Z,97895.19
2023-02-12T09:38:59.905Z,97903.06
2023-02-12T09:42:03.239Z,97897.75
2023-02-12T09:44:33.893Z,97900.91
2023-02-12T09:47:05.513Z,97903.19
2023-02-12T09:49:49.496Z,97905.13
2023-02-12T09:52:18.920Z,97902.59
2023-02-12T09:54:47.471Z,97906.19
2023-02-12T09:57:18.875Z,97907.31
2023-02-12T09:59:49.155Z,97905.31
2023-02-12T10:02:20.125Z,97906.59
2023-02-12T10:05:00.609Z,97907.06
2023-02-12T10:07:52.207Z,97906.91
2023-02-12T10:10:27.463Z,97909.91
2023-02-12T10:12:57.720Z,97912.19
2023-02-12T10:15:32.106Z,97905.53
2023-02-12T10:18:16.144Z,97901.53
2023-02-12T10:20:56.588Z,97904.63
2023-02-12T10:23:39.636Z,97903.81
2023-02-12T10:26:13.173Z,97906.09
2023-02-12T10:28:42.685Z,97906.75
2023-02-12T10:31:15.684Z,97906.94
2023-02-12T10:33:46.920Z,97901.81
2023-02-12T10:36:20.106Z,97900.97
2023-02-12T10:38:50.647Z,97909.41
2023-02-12T10:41:18.992Z,97909.22
2023-02-12T10:44:16.361Z,97904.19
2023-02-12T10:46:45.059Z,97909.16
2023-02-12T10:49:16.375Z,97901.56
2023-02-12T10:51:58.282Z,97902.38
2023-02-12T10:54:33.621Z,97903.38
2023-02-12T10:57:06.245Z,97898.25
2023-02-12T10:59:35.854Z,97892.78
2023-02-12T11:02:04.616Z,97894.91
2023-02-12T11:04:34.774Z,97895.34
2023-02-12T11:07:04.826Z,97891.44
2023-02-12T11:09:36.373Z,97893.19
2023-02-12T11:12:05.386Z,97891.47
2023-02-12T11:14:33.743Z,97892.94
2023-02-12T11:17:03.207Z,97895.66
2023-02-12T11:19:35.263Z,97885.72
2023-02-12T11:22:09.225Z,97881.84
2023-02-12T11:24:38.385Z,97886.25
2023-02-12T11:27:14.165Z,97882.38
2023-02-12T11:29:42.567Z,97877.72
2023-02-12T11:32:12.570Z,97882.84
2023-02-12T11:34:42.577Z,97880.03
2023-02-12T11:37:15.594Z,97876.56
2023-02-12T11:39:43.864Z,97869.84
2023-02-12T11:42:17.600Z,97866.66
2023-02-12T11:44:49.820Z,97866.91
2023-02-12T11:47:19.203Z,97864.53
2023-02-12T11:49:53.422Z,97863.97
2023-02-12T11:52:23.027Z,97859.31
2023-02-12T11:54:52.336Z,97861.41
2023-02-12T11:57:36.566Z,97863.13
2023-02-12T12:00:05.978Z,97863.66
2023-02-12T12:02:36.226Z,97860.81
2023-02-12T12:05:09.976Z,97852.44
2023-02-12T12:07:38.632Z,97856.94
2023-02-12T12:10:08.969Z,97851.44
2023-02-12T12:12:40.425Z,97854.56
2023-02-12T12:15:28.788Z,97852.91
2023-02-12T12:18:24.554Z,97849.06
2023-02-12T12:20:55.777Z,97851.53
2023-02-12T12:23:26.680Z,97856.38
2023-02-12T12:25:57.943Z,97848.59
2023-02-12T12:28:30.408Z,97858.88
2023-02-12T12:31:02.695Z,97859.03
2023-02-12T12:33:35.409Z,97864.72
2023-02-12T12:36:26.138Z,97855.31
2023-02-12T12:38:57.022Z,97858.97
2023-02-12T12:41:29.280Z,97858.06
2023-02-12T12:44:04.955Z,97857.69
2023-02-12T12:46:41.633Z,97858.53
2023-02-12T12:49:30.708Z,97856.88
2023-02-12T12:52:34.496Z,97853.56
2023-02-12T12:55:17.251Z,97853.84
2023-02-12T12:57:50.212Z,97855.88
2023-02-12T13:00:43.020Z,97850.09
2023-02-12T13:03:36.240Z,97852.16
2023-02-12T13:06:16.562Z,97849.28
2023-02-12T13:08:55.192Z,97849.09
2023-02-12T13:11:36.723Z,97849.03
2023-02-12T13:14:14.129Z,97850.84
2023-02-12T13:16:44.788Z,97850.69
2023-02-12T13:19:16.618Z,97842.44
2023-02-12T13:21:48.882Z,97844.25
2023-02-12T13:24:30.251Z,97847.75
2023-02-12T13:27:00.906Z,97845.03
2023-02-12T13:29:31.036Z,97846.03
2023-02-12T13:32:01.262Z,97847.78
2023-02-12T13:34:30.848Z,97843.66
2023-02-12T13:36:59.614Z,97840.59
2023-02-12T13:39:31.687Z,97843.78
2023-02-12T13:42:21.662Z,97846.44
2023-02-12T13:44:56.389Z,97842.78
2023-02-12T13:47:31.205Z,97842.78
2023-02-12T13:50:01.436Z,97848.44
2023-02-12T13:52:32.484Z,97849.00
2023-02-12T13:55:13.098Z,97844.34
2023-02-12T13:57:42.784Z,97849.94
2023-02-12T14:00:52.877Z,97846.63
2023-02-12T14:03:24.922Z,97843.81
2023-02-12T14:06:14.601Z,97847.00
2023-02-12T14:08:44.090Z,97847.19
2023-02-12T14:11:13.716Z,97853.13
2023-02-12T14:13:56.090Z,97846.34
2023-02-12T14:16:39.825Z,97838.13
2023-02-12T14:19:38.399Z,97845.19
2023-02-12T14:22:12.210Z,97854.22
2023-02-12T14:24:55.954Z,97847.28
2023-02-12T14:27:37.989Z,97847.91
2023-02-12T14:30:39.120Z,97853.69
2023-02-12T14:33:27.744Z,97838.03
2023-02-12T14:36:18.249Z,97846.19
2023-02-12T14:39:05.126Z,97846.25
2023-02-12T14:41:44.099Z,97853.75
2023-02-12T14:44:46.201Z,97860.44
2023-02-12T14:47:26.934Z,97867.00
2023-02-12T14:49:56.059Z,97865.69
2023-02-12T14:52:25.763Z,97862.22
2023-02-12T14:54:55.513Z,97864.88
2023-02-12T14:57:27.552Z,97861.03
2023-02-12T14:59:59.478Z,97859.88
2023-02-12T15:02:29.949Z,97858.22
2023-02-12T15:05:01.079Z,97857.91
2023-02-12T15:07:31.040Z,97848.16
2023-02-12T15:10:02.920Z,97852.63
2023-02-12T15:12:33.161Z,97849.22
2023-02-12T15:15:05.973Z,97844.66
2023-02-12T15:17:36.442Z,97848.03
2023-02-12T15:20:06.952Z,97848.66
2023-02-12T15:22:36.655Z,97857.81
2023-02-12T15:25:18.463Z,97850.94
2023-02-12T15:27:47.672Z,97846.63
2023-02-12T15:30:25.904Z,97854.19
2023-02-12T15:32:57.134Z,97853.09
2023-02-12T15:35:26.952Z,97848.16
2023-02-12T15:37:55.569Z,97861.09
2023-02-12T15:40:26.913Z,97856.72
2023-02-12T15:42:57.281Z,97856.88
2023-02-12T15:45:29.345Z,97862.50
2023-02-12T15:48:13.278Z,97865.06
2023-02-12T15:50:50.595Z,97862.56
2023-02-12T15:53:19.208Z,97864.13
2023-02-12T15:55:48.192Z,97854.69
2023-02-12T15:58:22.565Z,97856.03
2023-02-12T16:00:51.057Z,97859.84
2023-02-12T16:03:25.218Z,97857.41
2023-02-12T16:05:54.046Z,97864.19
2023-02-12T16:08:23.653Z,97856.25
2023-02-12T16:10:54.048Z,97860.06
2023-02-12T16:13:27.523Z,97865.91
2023-02-12T16:16:06.262Z,97863.25
2023-02-12T16:18:38.467Z,97866.41
2023-02-12T16:21:07.710Z,97869.06
2023-02-12T16:23:36.806Z,97871.47
2023-02-12T16:26:05.888Z,97871.84
2023-02-12T16:28:37.399Z,97877.00
2023-02-12T16:31:10.665Z,97892.25
2023-02-12T16:33:50.733Z,97883.09
2023-02-12T16:36:30.948Z,97894.19
2023-02-12T16:39:01.075Z,97885.31
2023-02-12T16:41:31.165Z,97895.72
2023-02-12T16:44:31.679Z,97891.47
2023-02-12T16:47:02.877Z,97899.13
2023-02-12T16:49:32.911Z,97904.72
2023-02-12T16:52:20.020Z,97899.28
2023-02-12T16:54:48.956Z,97899.63
2023-02-12T16:57:17.739Z,97894.84
2023-02-12T16:59:46.184Z,97902.13
2023-02-12T17:02:15.722Z,97903.94
2023-02-12T17:05:05.156Z,97898.66
2023-02-12T17:07:36.187Z,97903.13
2023-02-12T17:12:59.837Z,97896.34
2023-02-12T17:15:30.401Z,97898.00
2023-02-12T17:17:59.348Z,97892.88
2023-02-12T17:20:29.415Z,97902.66
2023-02-12T17:22:59.622Z,97901.81
2023-02-12T17:25:30.217Z,97903.81
2023-02-12T17:27:58.863Z,97900.00
2023-02-12T17:30:29.131Z,97904.63
2023-02-12T17:32:57.530Z,97901.31
2023-02-12T17:35:26.181Z,97902.44
2023-02-12T17:37:56.393Z,97902.66
2023-02-12T17:40:25.508Z,97902.31
2023-02-12T17:42:54.198Z,97902.16
2023-02-12T17:45:22.639Z,97905.63
2023-02-12T17:47:51.342Z,97897.19
2023-02-12T17:50:20.233Z,97905.28
2023-02-12T17:52:48.922Z,97905.50
2023-02-12T17:55:19.289Z,97899.38
2023-02-12T17:57:47.598Z,97904.81
2023-02-12T18:00:17.316Z,97896.91
2023-02-12T18:02:46.222Z,97907.31
2023-02-12T18:05:14.752Z,97908.31
2023-02-12T18:07:43.328Z,97904.81
2023-02-12T18:10:12.150Z,97896.25
2023-02-12T18:12:41.912Z,97893.09
2023-02-12T18:15:11.329Z,97899.88
2023-02-12T18:17:40.106Z,97903.84
2023-02-12T18:20:10.355Z,97903.47
2023-02-12T18:22:38.858Z,97898.34
2023-02-12T18:25:08.168Z,97894.09
2023-02-12T18:27:36.549Z,97895.06
2023-02-12T18:30:09.081Z,97897.53
2023-02-12T18:32:38.077Z,97910.59
2023-02-12T18:35:06.939Z,97908.28
2023-02-12T18:37:35.378Z,97907.94
2023-02-12T18:40:03.755Z,97909.47
2023-02-12T18:42:33.465Z,97902.69
2023-02-12T18:45:03.842Z,97900.41
2023-02-12T18:47:34.044Z,97905.47
2023-02-12T18:50:02.339Z,97902.50
2023-02-12T18:52:32.021Z,97903.19
2023-02-12T18:55:00.576Z,97901.53
2023-02-12T18:57:30.357Z,97907.63
2023-02-12T18:59:58.582Z,97900.69
2023-02-12T19:02:27.041Z,97900.03
2023-02-12T19:04:56.928Z,97893.63
2023-02-12T19:07:27.009Z,97890.97
2023-02-12T19:09:55.829Z,97896.72
2023-02-12T19:12:26.364Z,97900.03
2023-02-12T19:14:54.770Z,97894.28
2023-02-12T19:17:23.023Z,97891.13
2023-02-12T19:19:51.980Z,97890.81
2023-02-12T19:22:21.965Z,97893.31
2023-02-12T19:24:51.543Z,97895.28
2023-02-12T19:27:20.284Z,97895.94
2023-02-12T19:29:49.022Z,97891.00
2023-02-12T19:32:17.611Z,97891.50
2023-02-12T19:34:46.903Z,97891.66
2023-02-12T19:37:15.473Z,97893.63
2023-02-12T19:39:45.606Z,97896.47
2023-02-12T19:42:15.105Z,97898.28
2023-02-12T19:44:43.583Z,97900.09
2023-02-12T19:47:12.315Z,97895.97
2023-02-12T19:49:41.462Z,97897.78
2023-02-12T19:52:10.143Z,97895.47
2023-02-12T19:54:38.429Z,97894.97
2023-02-12T19:57:09.378Z,97894.66
2023-02-12T19:59:37.969Z,97891.19
2023-02-12T20:02:06.587Z,97890.84
2023-02-12T20:04:35.119Z,97888.88
2023-02-12T20:07:03.863Z,97886.38
2023-02-12T20:09:32.208Z,97890.53
2023-02-12T20:12:00.606Z,97893.16
2023-02-12T20:14:30.242Z,97897.78
2023-02-12T20:16:59.660Z,97895.31
2023-02-12T20:19:30.114Z,97898.63
2023-02-12T20:21:58.470Z,97902.94
2023-02-12T20:24:27.814Z,97908.03
2023-02-12T20:26:56.179Z,97915.59
2023-02-12T20:29:24.505Z,97922.06
2023-02-12T20:31:55.224Z,97913.63
2023-02-12T20:34:24.123Z,97917.63
2023-02-12T20:36:54.000Z,97920.44
2023-02-12T20:39:22.738Z,97913.50
2023-02-12T20:41:51.556Z,97921.56
2023-02-12T20:44:21.570Z,97918.59
2023-02-12T20:46:54.446Z,97923.22
2023-02-12T20:49:27.002Z,97913.63
2023-02-12T20:51:55.319Z,97920.75
2023-02-12T20:54:23.968Z,97923.53
2023-02-12T20:56:53.012Z,97923.06
2023-02-12T20:59:21.679Z,97920.91
2023-02-12T21:01:50.253Z,97921.59
2023-02-12T21:04:19.599Z,97926.72
2023-02-12T21:06:50.378Z,97935.47
2023-02-12T21:09:18.789Z,97924.22
2023-02-12T21:11:47.103Z,97918.44
2023-02-12T21:14:22.499Z,97923.72
2023-02-12T21:16:54.110Z,97918.44
2023-02-12T21:19:22.630Z,97921.91
2023-02-12T21:21:52.308Z,97923.09
2023-02-12T21:24:22.003Z,97928.38
2023-02-12T21:26:50.830Z,97924.06
2023-02-12T21:29:19.640Z,97921.59
2023-02-12T21:31:49.178Z,97926.03
2023-02-12T21:34:19.665Z,97926.19
2023-02-12T21:36:48.482Z,97919.22
2023-02-12T21:39:25.140Z,97923.16
2023-02-12T21:41:54.848Z,97925.78
2023-02-12T21:44:23.446Z,97932.88
2023-02-12T21:46:51.841Z,97940.94
2023-02-12T21:49:24.989Z,97934.84
2023-02-12T21:51:54.050Z,97936.84
2023-02-12T21:54:24.299Z,97946.78
2023-02-12T21:56:52.567Z,97940.03
2023-02-12T21:59:21.409Z,97940.50
2023-02-12T22:01:50.968Z,97946.13
2023-02-12T22:04:19.628Z,97948.16
2023-02-12T22:06:48.846Z,97948.47
2023-02-12T22:09:18.657Z,97951.13
2023-02-12T22:11:48.344Z,97953.44
2023-02-12T22:14:17.606Z,97946.50
2023-02-12T22:16:46.116Z,97947.31
2023-02-12T22:19:14.729Z,97948.78
2023-02-12T22:21:43.493Z,97947.50
2023-02-12T22:24:13.951Z,97937.56
2023-02-12T22:26:42.306Z,97940.91
2023-02-12T22:29:13.890Z,97942.03
2023-02-12T22:31:42.996Z,97935.78
2023-02-12T22:34:13.948Z,97941.88
2023-02-12T22:36:45.158Z,97940.72
2023-02-12T22:39:13.869Z,97937.09
2023-02-12T22:41:43.162Z,97937.75
2023-02-12T22:44:13.239Z,97937.75
2023-02-12T22:46:41.858Z,97943.84
2023-02-12T22:49:10.058Z,97931.81
2023-02-12T22:51:39.684Z,97946.19
2023-02-12T22:54:08.149Z,97940.59
2023-02-12T22:56:36.398Z,97940.91
2023-02-12T22:59:04.766Z,97941.56
2023-02-12T23:01:34.723Z,97943.22
2023-02-12T23:04:06.546Z,97948.00
2023-02-12T23:06:34.887Z,97939.91
2023-02-12T23:09:04.146Z,97937.44
2023-02-12T23:11:33.307Z,97934.97
2023-02-12T23:14:02.021Z,97932.63
2023-02-12T23:16:30.384Z,97933.97
2023-02-12T23:19:01.455Z,97930.66
2023-02-12T23:21:30.250Z,97931.81
2023-02-12T23:23:59.183Z,97924.41
2023-02-12T23:26:28.088Z,97926.22
2023-02-12T23:28:57.674Z,97924.25
2023-02-12T23:31:26.154Z,97918.47
2023-02-12T23:33:55.162Z,97919.97
2023-02-12T23:36:25.355Z,97906.56
2023-02-12T23:38:53.613Z,97909.56
2023-02-12T23:41:22.152Z,97903.09
2023-02-12T23:43:50.730Z,97906.25
2023-02-12T23:46:19.020Z,97899.81
2023-02-12T23:48:47.197Z,97899.63
2023-02-12T23:51:15.444Z,97893.88
2023-02-12T23:53:45.120Z,97902.78
2023-02-12T23:56:13.767Z,97897.19
2023-02-12T23:58:42.409Z,97895.34
